createdAt,value
2022-08-26T00:01:57.048Z,99.90
2022-08-26T00:04:26.197Z,99.90
2022-08-26T00:06:57.198Z,99.90
2022-08-26T00:09:25.956Z,99.90
2022-08-26T00:11:54.318Z,99.90
2022-08-26T00:14:26.026Z,99.90
2022-08-26T00:16:59.942Z,99.90
2022-08-26T00:19:27.345Z,99.90
2022-08-26T00:21:54.908Z,99.90
2022-08-26T00:24:26.882Z,99.90
2022-08-26T00:26:54.185Z,99.90
2022-08-26T00:29:21.818Z,99.90
2022-08-26T00:31:50.262Z,99.90
2022-08-26T00:34:19.441Z,99.90
2022-08-26T00:36:47.858Z,99.90
2022-08-26T00:39:19.985Z,99.90
2022-08-26T00:41:47.668Z,99.90
2022-08-26T00:44:14.668Z,99.90
2022-08-26T00:46:48.536Z,99.90
2022-08-26T00:49:34.474Z,99.90
2022-08-26T00:52:07.053Z,99.90
2022-08-26T00:54:46.789Z,99.90
2022-08-26T00:57:18.738Z,99.90
2022-08-26T00:59:55.028Z,99.90
2022-08-26T01:02:23.023Z,99.90
2022-08-26T01:05:03.384Z,99.90
2022-08-26T01:07:34.846Z,99.90
2022-08-26T01:10:10.375Z,99.90
2022-08-26T01:12:45.565Z,99.90
2022-08-26T01:15:24.954Z,99.90
2022-08-26T01:17:53.095Z,99.90
2022-08-26T01:20:57.699Z,99.90
2022-08-26T01:23:35.626Z,99.90
2022-08-26T01:26:20.018Z,99.90
2022-08-26T01:28:51.981Z,99.90
2022-08-26T01:31:25.192Z,99.90
2022-08-26T01:34:35.201Z,99.90
2022-08-26T01:37:11.700Z,99.90
2022-08-26T01:39:46.913Z,99.90
2022-08-26T01:42:16.820Z,99.90
2022-08-26T01:45:10.037Z,99.90
2022-08-26T01:47:38.694Z,99.90
2022-08-26T01:50:15.840Z,99.90
2022-08-26T01:52:57.420Z,99.90
2022-08-26T01:55:32.836Z,99.90
2022-08-26T01:58:08.002Z,99.90
2022-08-26T02:00:36.980Z,99.90
2022-08-26T02:03:21.510Z,99.90
2022-08-26T02:05:57.718Z,99.90
2022-08-26T02:08:37.600Z,99.90
2022-08-26T02:11:05.498Z,99.90
2022-08-26T02:13:40.105Z,99.90
2022-08-26T02:16:08.719Z,99.90
2022-08-26T02:18:40.564Z,99.90
2022-08-26T02:21:09.732Z,99.90
2022-08-26T02:23:37.386Z,99.90
2022-08-26T02:26:17.925Z,99.90
2022-08-26T02:29:07.748Z,99.90
2022-08-26T02:31:35.462Z,99.90
2022-08-26T02:34:12.572Z,99.90
2022-08-26T02:36:40.866Z,99.90
2022-08-26T02:39:08.653Z,99.90
2022-08-26T02:41:36.243Z,99.90
2022-08-26T02:44:13.204Z,99.90
2022-08-26T02:46:41.164Z,99.90
2022-08-26T02:49:08.837Z,99.90
2022-08-26T02:51:35.958Z,99.90
2022-08-26T02:54:03.199Z,99.90
2022-08-26T02:56:34.008Z,99.90
2022-08-26T02:59:02.679Z,99.90
2022-08-26T03:01:34.438Z,99.90
2022-08-26T03:04:06.219Z,99.90
2022-08-26T03:06:33.493Z,99.90
2022-08-26T03:09:02.197Z,99.90
2022-08-26T03:11:32.987Z,99.90
2022-08-26T03:14:03.400Z,99.90
2022-08-26T03:16:38.130Z,99.90
2022-08-26T03:19:09.276Z,99.90
2022-08-26T03:21:38.936Z,99.90
2022-08-26T03:24:06.472Z,99.90
2022-08-26T03:26:33.494Z,99.90
2022-08-26T03:29:19.469Z,99.90
2022-08-26T03:31:47.124Z,99.90
2022-08-26T03:34:15.376Z,99.90
2022-08-26T03:36:42.552Z,99.90
2022-08-26T03:39:12.188Z,99.90
2022-08-26T03:41:40.753Z,99.90
2022-08-26T03:44:11.918Z,99.90
2022-08-26T03:46:40.524Z,99.90
2022-08-26T03:49:07.630Z,99.90
2022-08-26T03:51:38.741Z,99.90
2022-08-26T03:54:08.194Z,99.90
2022-08-26T03:56:36.751Z,99.90
2022-08-26T03:59:04.839Z,99.90
2022-08-26T04:01:35.335Z,99.90
2022-08-26T04:04:03.249Z,99.90
2022-08-26T04:06:44.701Z,99.90
2022-08-26T04:09:20.419Z,99.90
2022-08-26T04:11:50.576Z,99.90
2022-08-26T04:14:23.964Z,99.90
2022-08-26T04:16:52.993Z,99.90
2022-08-26T04:19:24.824Z,99.90
2022-08-26T04:21:55.463Z,99.90
2022-08-26T04:24:26.199Z,99.90
2022-08-26T04:26:56.404Z,99.90
2022-08-26T04:29:26.764Z,99.90
2022-08-26T04:31:55.939Z,99.90
2022-08-26T04:34:28.502Z,99.90
2022-08-26T04:36:57.771Z,99.90
2022-08-26T04:39:27.702Z,99.90
2022-08-26T04:41:55.712Z,99.90
2022-08-26T04:44:30.899Z,99.90
2022-08-26T04:47:00.835Z,99.90
2022-08-26T04:49:28.035Z,99.90
2022-08-26T04:52:03.876Z,99.90
2022-08-26T04:54:31.876Z,99.90
2022-08-26T04:57:00.810Z,99.90
2022-08-26T04:59:27.950Z,99.90
2022-08-26T05:01:57.369Z,99.90
2022-08-26T05:04:24.756Z,99.90
2022-08-26T05:06:55.672Z,99.90
2022-08-26T05:09:26.084Z,99.90
2022-08-26T05:11:53.165Z,99.90
2022-08-26T05:14:23.249Z,99.90
2022-08-26T05:16:51.136Z,99.90
2022-08-26T05:19:19.612Z,99.90
2022-08-26T05:21:48.726Z,99.90
2022-08-26T05:24:17.871Z,99.90
2022-08-26T05:26:47.255Z,99.90
2022-08-26T05:29:17.937Z,99.90
2022-08-26T05:31:45.294Z,99.90
2022-08-26T05:34:12.688Z,99.90
2022-08-26T05:36:40.279Z,99.90
2022-08-26T05:39:07.902Z,99.90
2022-08-26T05:41:41.548Z,99.90
2022-08-26T05:44:14.728Z,99.90
2022-08-26T05:46:44.773Z,99.90
2022-08-26T05:49:14.830Z,99.90
2022-08-26T05:51:47.524Z,99.90
2022-08-26T05:54:21.818Z,99.90
2022-08-26T05:56:52.409Z,99.90
2022-08-26T05:59:23.954Z,99.90
2022-08-26T06:01:52.925Z,99.90
2022-08-26T06:04:20.158Z,99.90
2022-08-26T06:06:47.809Z,99.90
2022-08-26T06:09:18.343Z,99.90
2022-08-26T06:11:45.697Z,99.90
2022-08-26T06:14:15.789Z,99.90
2022-08-26T06:16:45.567Z,99.90
2022-08-26T06:19:15.675Z,99.90
2022-08-26T06:21:47.842Z,99.90
2022-08-26T06:24:39.973Z,99.90
2022-08-26T06:27:13.379Z,99.90
2022-08-26T06:29:40.496Z,99.90
2022-08-26T06:32:08.717Z,99.90
2022-08-26T06:34:36.254Z,99.90
2022-08-26T06:37:03.667Z,99.90
2022-08-26T06:39:31.976Z,99.90
2022-08-26T06:42:00.967Z,99.90
2022-08-26T06:44:30.664Z,99.90
2022-08-26T06:47:01.428Z,99.90
2022-08-26T06:49:28.550Z,99.90
2022-08-26T06:52:02.899Z,99.90
2022-08-26T06:54:31.692Z,99.90
2022-08-26T06:57:02.626Z,99.90
2022-08-26T06:59:31.284Z,99.90
2022-08-26T07:02:00.876Z,99.90
2022-08-26T07:04:29.697Z,99.90
2022-08-26T07:06:57.453Z,99.90
2022-08-26T07:09:31.126Z,99.90
2022-08-26T07:11:59.303Z,99.90
2022-08-26T07:14:28.668Z,99.90
2022-08-26T07:16:55.732Z,99.90
2022-08-26T07:19:29.928Z,99.90
2022-08-26T07:22:04.675Z,99.90
2022-08-26T07:24:36.967Z,99.90
2022-08-26T07:27:09.094Z,99.90
2022-08-26T07:29:39.569Z,99.90
2022-08-26T07:32:08.637Z,99.90
2022-08-26T07:34:40.883Z,99.90
2022-08-26T07:37:10.787Z,99.90
2022-08-26T07:39:38.464Z,99.90
2022-08-26T07:42:09.949Z,99.90
2022-08-26T07:44:38.091Z,99.90
2022-08-26T07:47:10.157Z,99.90
2022-08-26T07:49:38.750Z,99.90
2022-08-26T07:52:09.223Z,99.90
2022-08-26T07:54:37.984Z,99.90
2022-08-26T07:57:08.373Z,99.90
2022-08-26T07:59:36.588Z,99.90
2022-08-26T08:02:03.693Z,99.90
2022-08-26T08:04:30.741Z,99.90
2022-08-26T08:06:59.258Z,99.80
2022-08-26T08:09:26.199Z,99.40
2022-08-26T08:11:54.534Z,98.70
2022-08-26T08:14:22.274Z,99.10
2022-08-26T08:16:51.127Z,99.30
2022-08-26T08:19:22.055Z,99.20
2022-08-26T08:21:49.227Z,98.80
2022-08-26T08:24:16.354Z,98.70
2022-08-26T08:26:43.505Z,98.50
2022-08-26T08:29:10.876Z,97.80
2022-08-26T08:31:56.954Z,98.10
2022-08-26T08:34:29.415Z,97.30
2022-08-26T08:36:57.693Z,97.90
2022-08-26T08:39:26.373Z,98.10
2022-08-26T08:42:46.912Z,97.70
2022-08-26T08:45:37.036Z,96.80
2022-08-26T08:48:34.893Z,97.40
2022-08-26T08:51:16.907Z,96.10
2022-08-26T08:53:50.728Z,96.10
2022-08-26T08:56:37.616Z,96.70
2022-08-26T08:59:20.317Z,96.50
2022-08-26T09:02:11.249Z,96.40
2022-08-26T09:05:15.343Z,96.60
2022-08-26T09:07:53.903Z,95.90
2022-08-26T09:10:44.154Z,95.70
2022-08-26T09:13:25.190Z,95.50
2022-08-26T09:16:00.676Z,96.40
2022-08-26T09:19:19.152Z,95.40
2022-08-26T09:21:54.506Z,95.50
2022-08-26T09:24:28.496Z,95.50
2022-08-26T09:26:59.381Z,95.80
2022-08-26T09:29:32.111Z,95.80
2022-08-26T09:32:24.158Z,95.80
2022-08-26T09:35:07.499Z,95.90
2022-08-26T09:40:27.000Z,97.00
2022-08-26T09:43:22.367Z,96.10
2022-08-26T09:46:18.483Z,95.80
2022-08-26T09:48:45.623Z,96.10
2022-08-26T09:51:24.040Z,95.90
2022-08-26T09:53:58.977Z,95.80
2022-08-26T09:56:34.030Z,95.80
2022-08-26T09:59:02.612Z,95.60
2022-08-26T10:01:41.949Z,95.00
2022-08-26T10:04:15.023Z,95.40
2022-08-26T10:06:56.868Z,95.50
2022-08-26T10:09:26.864Z,95.80
2022-08-26T10:12:08.261Z,95.60
2022-08-26T10:14:48.111Z,94.50
2022-08-26T10:17:37.089Z,94.60
2022-08-26T10:20:24.963Z,94.60
2022-08-26T10:23:16.978Z,94.20
2022-08-26T10:25:44.836Z,94.00
2022-08-26T10:28:46.604Z,94.20
2022-08-26T10:31:38.179Z,94.00
2022-08-26T10:34:09.457Z,93.90
2022-08-26T10:40:00.988Z,93.50
2022-08-26T10:42:59.185Z,93.30
2022-08-26T10:45:42.772Z,92.30
2022-08-26T10:48:18.408Z,92.80
2022-08-26T10:50:47.971Z,93.00
2022-08-26T10:53:51.408Z,92.50
2022-08-26T10:56:51.738Z,92.20
2022-08-26T10:59:47.473Z,92.20
2022-08-26T11:02:37.120Z,92.20
2022-08-26T11:05:22.473Z,92.10
2022-08-26T11:07:54.841Z,92.20
2022-08-26T11:10:22.545Z,92.10
2022-08-26T11:13:06.826Z,92.10
2022-08-26T11:15:37.142Z,92.20
2022-08-26T11:18:12.271Z,92.30
2022-08-26T11:20:45.027Z,92.60
2022-08-26T11:23:12.898Z,92.70
2022-08-26T11:26:05.319Z,93.30
2022-08-26T11:28:53.383Z,92.90
2022-08-26T11:31:26.755Z,93.00
2022-08-26T11:34:08.695Z,92.90
2022-08-26T11:36:46.990Z,93.20
2022-08-26T11:39:36.845Z,93.50
2022-08-26T11:42:28.563Z,93.50
2022-08-26T11:44:58.280Z,93.60
2022-08-26T11:47:30.727Z,93.70
2022-08-26T11:50:11.536Z,93.70
2022-08-26T11:52:38.586Z,93.70
2022-08-26T11:55:12.042Z,93.50
2022-08-26T11:57:51.714Z,93.70
2022-08-26T12:00:33.281Z,93.80
2022-08-26T12:03:08.106Z,93.90
2022-08-26T12:05:55.405Z,94.00
2022-08-26T12:08:31.106Z,94.30
2022-08-26T12:11:08.616Z,93.70
2022-08-26T12:13:39.068Z,94.10
2022-08-26T12:16:07.613Z,94.00
2022-08-26T12:18:39.101Z,94.10
2022-08-26T12:21:19.730Z,95.10
2022-08-26T12:23:51.293Z,94.10
2022-08-26T12:26:26.929Z,94.10
2022-08-26T12:29:13.186Z,94.20
2022-08-26T12:31:48.278Z,94.20
2022-08-26T12:34:18.135Z,94.20
2022-08-26T12:36:56.742Z,94.20
2022-08-26T12:39:39.840Z,94.10
2022-08-26T12:42:12.868Z,94.20
2022-08-26T12:45:06.924Z,94.90
2022-08-26T12:47:42.483Z,94.10
2022-08-26T12:50:27.135Z,94.00
2022-08-26T12:53:11.130Z,93.80
2022-08-26T12:55:58.863Z,93.90
2022-08-26T12:58:33.409Z,93.90
2022-08-26T13:01:04.775Z,94.90
2022-08-26T13:03:34.591Z,94.30
2022-08-26T13:06:24.983Z,93.50
2022-08-26T13:09:01.047Z,93.30
2022-08-26T13:11:41.032Z,93.10
2022-08-26T13:14:23.619Z,93.20
2022-08-26T13:16:52.980Z,93.00
2022-08-26T13:19:24.215Z,93.00
2022-08-26T13:22:00.777Z,92.80
2022-08-26T13:24:41.887Z,92.90
2022-08-26T13:27:13.589Z,92.70
2022-08-26T13:29:41.413Z,93.00
2022-08-26T13:32:09.824Z,92.70
2022-08-26T13:34:38.920Z,93.00
2022-08-26T13:37:06.764Z,93.10
2022-08-26T13:39:34.421Z,93.40
2022-08-26T13:42:01.560Z,93.10
2022-08-26T13:44:28.626Z,93.90
2022-08-26T13:46:55.740Z,94.00
2022-08-26T13:49:25.806Z,94.10
2022-08-26T13:51:52.996Z,95.30
2022-08-26T13:54:20.085Z,95.00
2022-08-26T13:56:48.483Z,96.60
2022-08-26T13:59:15.585Z,97.10
2022-08-26T14:01:42.703Z,96.80
2022-08-26T14:04:09.734Z,96.90
2022-08-26T14:06:37.341Z,97.70
2022-08-26T14:09:04.768Z,98.70
2022-08-26T14:11:34.757Z,99.20
2022-08-26T14:14:18.974Z,99.80
2022-08-26T14:16:58.919Z,99.90
2022-08-26T14:19:29.922Z,99.90
2022-08-26T14:21:57.229Z,99.90
2022-08-26T14:24:24.067Z,99.90
2022-08-26T14:26:51.017Z,99.90
2022-08-26T14:29:20.752Z,99.90
2022-08-26T14:31:48.317Z,99.90
2022-08-26T14:34:15.399Z,99.90
2022-08-26T14:36:42.406Z,99.90
2022-08-26T14:39:13.322Z,99.90
2022-08-26T14:41:55.005Z,99.90
2022-08-26T14:44:29.163Z,99.90
2022-08-26T14:46:57.104Z,99.90
2022-08-26T14:49:25.158Z,99.90
2022-08-26T14:51:52.136Z,99.90
2022-08-26T14:54:21.868Z,99.90
2022-08-26T14:56:52.108Z,99.90
2022-08-26T14:59:24.543Z,99.90
2022-08-26T15:01:52.343Z,99.90
2022-08-26T15:04:22.790Z,99.90
2022-08-26T15:06:54.311Z,99.90
2022-08-26T15:09:25.639Z,99.90
2022-08-26T15:11:53.593Z,99.90
2022-08-26T15:14:22.540Z,99.90
2022-08-26T15:16:53.982Z,99.90
2022-08-26T15:19:22.728Z,99.90
2022-08-26T15:21:50.462Z,99.90
2022-08-26T15:24:22.051Z,99.90
2022-08-26T15:26:50.297Z,99.90
2022-08-26T15:29:22.759Z,99.90
2022-08-26T15:31:50.662Z,99.90
2022-08-26T15:34:18.359Z,99.90
2022-08-26T15:36:47.452Z,99.90
2022-08-26T15:39:17.064Z,99.90
2022-08-26T15:41:45.171Z,99.90
2022-08-26T15:44:14.300Z,99.90
2022-08-26T15:46:42.615Z,99.90
2022-08-26T15:49:16.187Z,99.90
2022-08-26T15:51:47.792Z,99.90
2022-08-26T15:54:17.119Z,99.90
2022-08-26T15:56:45.516Z,99.90
2022-08-26T15:59:14.884Z,99.90
2022-08-26T16:01:43.602Z,99.90
2022-08-26T16:04:11.448Z,99.80
2022-08-26T16:06:42.628Z,99.90
2022-08-26T16:09:10.527Z,99.60
2022-08-26T16:11:37.814Z,99.50
2022-08-26T16:14:06.099Z,99.50
2022-08-26T16:16:33.269Z,99.30
2022-08-26T16:19:07.263Z,98.90
2022-08-26T16:21:35.188Z,99.00
2022-08-26T16:24:08.967Z,99.20
2022-08-26T16:26:39.288Z,99.20
2022-08-26T16:29:11.133Z,99.20
2022-08-26T16:31:39.087Z,99.50
2022-08-26T16:34:07.927Z,99.00
2022-08-26T16:36:38.129Z,98.70
2022-08-26T16:39:08.704Z,98.40
2022-08-26T16:41:36.506Z,98.20
2022-08-26T16:44:04.827Z,97.70
2022-08-26T16:46:33.692Z,97.70
2022-08-26T16:49:04.603Z,97.40
2022-08-26T16:51:32.513Z,97.20
2022-08-26T16:54:06.968Z,96.90
2022-08-26T16:56:35.078Z,97.30
2022-08-26T16:59:09.491Z,97.20
2022-08-26T17:01:36.598Z,97.30
2022-08-26T17:04:06.643Z,97.40
2022-08-26T17:06:34.090Z,97.40
2022-08-26T17:09:03.927Z,97.30
2022-08-26T17:11:31.071Z,97.30
2022-08-26T17:13:59.394Z,97.20
2022-08-26T17:16:27.392Z,97.20
2022-08-26T17:18:56.620Z,97.10
2022-08-26T17:21:24.691Z,97.10
2022-08-26T17:23:52.194Z,97.30
2022-08-26T17:26:19.756Z,97.30
2022-08-26T17:28:46.758Z,98.20
2022-08-26T17:31:13.885Z,97.40
2022-08-26T17:33:41.160Z,97.40
2022-08-26T17:36:09.793Z,98.00
2022-08-26T17:38:37.945Z,97.60
2022-08-26T17:41:14.247Z,97.60
2022-08-26T17:43:41.319Z,97.70
2022-08-26T17:46:11.794Z,97.90
2022-08-26T17:48:41.265Z,98.20
2022-08-26T17:51:19.145Z,97.60
2022-08-26T17:53:47.861Z,97.60
2022-08-26T17:56:18.630Z,98.30
2022-08-26T17:58:48.227Z,98.20
2022-08-26T18:01:22.621Z,97.70
2022-08-26T18:03:50.357Z,97.80
2022-08-26T18:06:17.476Z,98.20
2022-08-26T18:08:45.056Z,97.80
2022-08-26T18:11:18.749Z,97.80
2022-08-26T18:13:47.634Z,98.40
2022-08-26T18:16:17.845Z,98.70
2022-08-26T18:18:46.473Z,98.10
2022-08-26T18:21:18.041Z,98.10
2022-08-26T18:23:46.850Z,98.50
2022-08-26T18:26:40.993Z,98.90
2022-08-26T18:29:08.347Z,99.00
2022-08-26T18:31:37.892Z,98.30
2022-08-26T18:34:05.855Z,98.40
2022-08-26T18:36:36.879Z,98.50
2022-08-26T18:39:06.816Z,99.10
2022-08-26T18:41:44.097Z,98.90
2022-08-26T18:44:13.928Z,98.70
2022-08-26T18:46:41.977Z,98.90
2022-08-26T18:49:12.483Z,99.10
2022-08-26T18:51:39.531Z,98.70
2022-08-26T18:54:08.276Z,98.90
2022-08-26T18:56:39.013Z,98.90
2022-08-26T18:59:08.344Z,99.30
2022-08-26T19:01:37.731Z,98.90
2022-08-26T19:04:08.067Z,98.80
2022-08-26T19:06:36.351Z,98.80
2022-08-26T19:09:07.731Z,98.80
2022-08-26T19:11:37.329Z,98.80
2022-08-26T19:14:13.015Z,98.70
2022-08-26T19:16:46.256Z,98.60
2022-08-26T19:19:15.248Z,99.00
2022-08-26T19:21:42.468Z,98.60
2022-08-26T19:24:15.544Z,98.60
2022-08-26T19:26:45.703Z,98.60
2022-08-26T19:29:13.832Z,98.60
2022-08-26T19:31:42.200Z,98.60
2022-08-26T19:34:12.239Z,98.80
2022-08-26T19:36:40.132Z,99.20
2022-08-26T19:39:12.448Z,98.50
2022-08-26T19:41:40.650Z,98.90
2022-08-26T19:44:38.025Z,98.50
2022-08-26T19:47:08.740Z,98.70
2022-08-26T19:49:36.018Z,98.60
2022-08-26T19:52:03.953Z,98.50
2022-08-26T19:54:30.879Z,98.50
2022-08-26T19:56:57.957Z,98.50
2022-08-26T19:59:28.984Z,98.50
2022-08-26T20:02:01.462Z,98.60
2022-08-26T20:04:31.451Z,98.60
2022-08-26T20:07:03.341Z,98.60
2022-08-26T20:09:34.207Z,98.40
2022-08-26T20:12:03.042Z,98.70
2022-08-26T20:14:30.312Z,99.30
2022-08-26T20:16:57.961Z,98.60
2022-08-26T20:19:44.070Z,98.60
2022-08-26T20:22:13.206Z,98.50
2022-08-26T20:24:40.825Z,99.10
2022-08-26T20:27:08.252Z,98.40
2022-08-26T20:29:37.288Z,98.00
2022-08-26T20:32:07.858Z,98.50
2022-08-26T20:34:36.632Z,98.50
2022-08-26T20:37:04.415Z,98.40
2022-08-26T20:39:31.442Z,98.30
2022-08-26T20:41:59.619Z,98.20
2022-08-26T20:44:28.618Z,98.20
2022-08-26T20:46:56.607Z,98.10
2022-08-26T20:49:23.590Z,98.10
2022-08-26T20:51:53.548Z,98.40
2022-08-26T20:54:27.515Z,98.80
2022-08-26T20:57:00.484Z,98.20
2022-08-26T20:59:27.632Z,98.00
2022-08-26T21:01:55.102Z,98.10
2022-08-26T21:04:25.713Z,98.60
2022-08-26T21:06:54.350Z,97.90
2022-08-26T21:09:25.502Z,98.20
2022-08-26T21:11:55.174Z,97.90
2022-08-26T21:14:23.242Z,97.80
2022-08-26T21:16:53.841Z,97.80
2022-08-26T21:19:21.774Z,98.50
2022-08-26T21:21:49.949Z,98.00
2022-08-26T21:24:17.579Z,97.80
2022-08-26T21:26:45.580Z,97.80
2022-08-26T21:29:13.681Z,97.70
2022-08-26T21:31:46.081Z,97.70
2022-08-26T21:34:17.049Z,98.10
2022-08-26T21:36:47.945Z,97.80
2022-08-26T21:39:16.537Z,97.70
2022-08-26T21:41:44.626Z,98.30
2022-08-26T21:44:14.176Z,97.80
2022-08-26T21:46:42.577Z,97.80
2022-08-26T21:49:13.688Z,97.80
2022-08-26T21:51:45.924Z,97.90
2022-08-26T21:54:14.147Z,98.10
2022-08-26T21:56:46.062Z,98.10
2022-08-26T21:59:16.884Z,98.10
2022-08-26T22:01:43.923Z,98.10
2022-08-26T22:04:10.883Z,98.10
2022-08-26T22:06:47.280Z,98.00
2022-08-26T22:09:18.991Z,98.20
2022-08-26T22:11:47.416Z,97.80
2022-08-26T22:14:15.957Z,98.20
2022-08-26T22:16:45.738Z,98.20
2022-08-26T22:19:20.085Z,98.10
2022-08-26T22:21:51.964Z,98.10
2022-08-26T22:24:22.251Z,97.80
2022-08-26T22:26:50.449Z,98.60
2022-08-26T22:29:18.781Z,98.80
2022-08-26T22:31:47.209Z,98.00
2022-08-26T22:34:17.266Z,97.80
2022-08-26T22:36:48.303Z,98.00
2022-08-26T22:39:21.084Z,97.80
2022-08-26T22:41:49.569Z,97.80
2022-08-26T22:44:18.996Z,98.60
2022-08-26T22:46:48.707Z,97.80
2022-08-26T22:49:16.506Z,97.70
2022-08-26T22:51:45.763Z,98.30
2022-08-26T22:54:14.219Z,97.70
2022-08-26T22:56:41.390Z,97.60
2022-08-26T22:59:10.572Z,97.60
2022-08-26T23:01:41.233Z,97.70
2022-08-26T23:04:09.331Z,98.40
2022-08-26T23:06:39.998Z,98.50
2022-08-26T23:09:09.020Z,97.50
2022-08-26T23:11:36.415Z,97.60
2022-08-26T23:14:06.575Z,97.40
2022-08-26T23:16:41.639Z,98.00
2022-08-26T23:19:12.293Z,98.20
2022-08-26T23:21:40.035Z,97.70
2022-08-26T23:24:09.063Z,97.70
2022-08-26T23:26:38.527Z,97.10
2022-08-26T23:29:08.328Z,97.60
2022-08-26T23:31:37.685Z,98.10
2022-08-26T23:34:24.111Z,97.70
2022-08-26T23:36:52.597Z,97.70
2022-08-26T23:39:21.026Z,97.90
2022-08-26T23:41:47.985Z,98.20
2022-08-26T23:44:40.430Z,98.50
2022-08-26T23:47:33.473Z,98.30
2022-08-26T23:50:00.767Z,99.00
2022-08-26T23:52:46.820Z,98.50
2022-08-26T23:55:14.376Z,98.40
2022-08-26T23:57:41.446Z,98.40
